»·PEaware :: N224TP KPSP-KSNA

N224TP :: KPSP-KSNA

FLIGHT INFORMATION

Flight Status: Arrived
Operator: Privately registered:
United States
More flights under this callsign
Pilot: Howard D. (5619)
Aircraft: ECLIPSE 500
(EA50)
More flights by this aircraft type
Origin: KPSP Palm Springs Intl
United States
Destination: KSNA John Wayne-Orange Co
United States
More flights between these airports :: More routes between these airports
Route: +CATH1 PSP V388 DEWAY HDF KAYOH7
File this flight plan on PilotEdge
Remarks:
Altitude:
(Current/Filed)
12,000ft
Speed:
(Current/Filed)
0kts
Departed: 10-Dec-17 09:50 PM
Arrived: 10-Dec-17 10:29 PM
Distance/Time
Traveled:
69nm/0:39
Distance/Time
To Go:
Arrived

Flight Plot

Page will automatically refresh every two minutes.


Map Options




Map Legend


Flown Route
Filed Route
Departure Airport
Arrival Airport
Navaid (VOR, NDB)
Fix

Horizontal Profiles

Position Reports

Time Latitude Longitude Heading Altitude Ground
Speed
10-Dec-17 21:31 33.825559 -116.509681 88 425ft 0kts
10-Dec-17 21:32 33.825559 -116.509681 88 425ft 0kts
10-Dec-17 21:33 33.825559 -116.509681 88 425ft 0kts
10-Dec-17 21:34 33.825559 -116.509681 88 425ft 0kts
10-Dec-17 21:35 33.825559 -116.509681 88 425ft 0kts
10-Dec-17 21:36 33.825559 -116.509681 88 425ft 0kts
10-Dec-17 21:37 33.825559 -116.509681 88 425ft 0kts
10-Dec-17 21:38 33.825559 -116.509681 88 425ft 0kts
10-Dec-17 21:39 33.825559 -116.509681 88 425ft 0kts
10-Dec-17 21:40 33.825559 -116.509681 88 425ft 0kts
10-Dec-17 21:41 33.825559 -116.509681 88 425ft 0kts
10-Dec-17 21:42 33.825559 -116.509681 88 425ft 0kts
10-Dec-17 21:43 33.825559 -116.509681 88 425ft 0kts
10-Dec-17 21:44 33.825559 -116.509681 88 425ft 0kts
10-Dec-17 21:45 33.825559 -116.509681 88 425ft 0kts
10-Dec-17 21:46 33.825559 -116.509681 88 425ft 0kts
10-Dec-17 21:47 33.825559 -116.509681 88 425ft 0kts
10-Dec-17 21:48 33.825371 -116.507703 87 422ft 17kts
10-Dec-17 21:49 33.823925 -116.504485 140 416ft 12kts
10-Dec-17 21:50 33.819547 -116.500689 144 403ft 24kts
10-Dec-17 21:51 33.818499 -116.498918 90 398ft 0kts
10-Dec-17 21:53 33.818499 -116.498918 90 398ft 0kts
10-Dec-17 21:54 33.818499 -116.498918 90 398ft 0kts
10-Dec-17 21:55 33.819174 -116.498317 332 399ft 6kts
10-Dec-17 21:56 33.838944 -116.515990 318 1177ft 135kts
10-Dec-17 21:57 33.872830 -116.543688 12 2862ft 179kts
10-Dec-17 21:58 33.882113 -116.487214 110 3798ft 209kts
10-Dec-17 21:59 33.859873 -116.418192 114 4412ft 220kts
10-Dec-17 22:00 33.835516 -116.353686 115 5287ft 207kts
10-Dec-17 22:01 33.818276 -116.289271 77 5845ft 212kts
10-Dec-17 22:02 33.803455 -116.224535 65 6365ft 212kts
10-Dec-17 22:03 33.843349 -116.234123 284 6984ft 206kts
10-Dec-17 22:04 33.850335 -116.297273 274 8086ft 183kts
10-Dec-17 22:05 33.856187 -116.355992 282 8985ft 173kts
10-Dec-17 22:06 33.865811 -116.411584 280 9733ft 171kts
10-Dec-17 22:07 33.878945 -116.468019 287 10570ft 199kts
10-Dec-17 22:08 33.896810 -116.536203 287 11946ft 234kts
10-Dec-17 22:09 33.919110 -116.623204 287 12002ft 301kts
10-Dec-17 22:10 33.943938 -116.722027 282 11997ft 315kts
10-Dec-17 22:11 33.917140 -116.819332 245 12000ft 315kts
10-Dec-17 22:12 33.888175 -116.895822 245 11999ft 314kts
10-Dec-17 22:13 33.851565 -116.991019 245 11999ft 313kts
10-Dec-17 22:14 33.815121 -117.085120 245 12000ft 313kts
10-Dec-17 22:15 33.781211 -117.173672 247 11998ft 313kts
10-Dec-17 22:16 33.777938 -117.276234 270 12000ft 313kts
10-Dec-17 22:17 33.778739 -117.381039 270 11999ft 311kts
10-Dec-17 22:18 33.779579 -117.477467 270 11997ft 273kts
10-Dec-17 22:19 33.780302 -117.563134 270 11532ft 260kts
10-Dec-17 22:20 33.780939 -117.642540 270 10476ft 222kts
10-Dec-17 22:21 33.781483 -117.713936 270 8972ft 208kts
10-Dec-17 22:22 33.781943 -117.781084 270 7492ft 201kts
10-Dec-17 22:23 33.782354 -117.846108 270 5962ft 200kts
10-Dec-17 22:24 33.778323 -117.904471 283 5498ft 165kts
10-Dec-17 22:25 33.806793 -117.898368 43 5687ft 147kts
10-Dec-17 22:26 33.843590 -117.861671 36 4512ft 195kts
10-Dec-17 22:27 33.885266 -117.820950 35 3933ft 191kts
10-Dec-17 22:28 33.896793 -117.766416 84 3979ft 170kts
10-Dec-17 22:29 33.870056 -117.745196 208 2955ft 198kts
10-Dec-17 22:30 33.827064 -117.769000 205 2941ft 159kts
10-Dec-17 22:31 33.789758 -117.795333 209 2398ft 172kts
10-Dec-17 22:32 33.749479 -117.821815 208 1522ft 153kts
10-Dec-17 22:33 33.716366 -117.843535 205 1075ft 124kts
10-Dec-17 22:34 33.684160 -117.863565 207 147ft 120kts
10-Dec-17 22:35 33.667360 -117.872842 158 52ft 0kts
10-Dec-17 22:36 33.667360 -117.872842 158 52ft 0kts

Navigation Log

Ident Type
1. KPSP Airport
2. EMRUD Fix
3. PSP Navaid
4. PSP Navaid
5. DEWAY Fix
6. KSNA Airport